LEXJ/SDR METAR and TAF weather

Enter ICAO airport designator
Station Type Date Time Source
LEXJ METAR 2020/09/27 00:00 UTC NOAA

LEXJ 270000Z AUTO 10006KT 050V140 9999 2300W -RA BKN026 BKN031 13/13 Q1017


Station Type Date Time Source
LEXJ Decoded METAR 2020/09/27 00:00 UTC NOAA

Santander / Parayas, Spain (LEXJ) 43-26N 003-49W 9M
Sep 26, 2020 - 08:00 PM EDT / 2020.09.27 0000 UTC
Wind: from the E (100 degrees) at 7 MPH (6 KT) (direction variable):0
Visibility: greater than 7 mile(s):0
Sky conditions: mostly cloudy
Weather: light rain
Temperature: 55 F (13 C)
Dew Point: 55 F (13 C)
Relative Humidity: 100%
Pressure (altimeter): 30.03 in. Hg (1017 hPa)
ob: LEXJ 270000Z AUTO 10006KT 050V140 9999 2300W -RA BKN026 BKN031 13/13 Q1017
cycle: 0

Station Type Date Time Source
LEXJ TAF 2020/09/26 21:27 UTC NOAA

TAF LEXJ 262000Z 2621/2721 35012KT 9999 SCT015 BKN020 TX17/2713Z TN12/2707Z
TEMPO 2621/2624 02016G30KT 3000 RA SHRA BKN010 BKN030TCU PROB30 2621/2622 32020G35KT 1500 +RA BKN005
BECMG 2701/2703 VRB06KT
TEMPO 2710/2716 29012G22KT FEW040TCU

Example: see airport list